Time;durP1;ratioP1;P1;durP2;ratioP2;P2;SDS_P1;SDS_P2;PMS_P1;PMS_P2;Temp;Humidity;BMP_temperature;BMP_pressure;BME280_temperature;BME280_humidity;BME280_pressure;Samples;Min_cycle;Max_cycle;Signal;HPM_P1;HPM_P2
2022/09/14 00:00:07;;;;;;;12.45;3.70;;;;;;;;;;4989053;28;20034;-76
2022/09/14 00:02:33;;;;;;;15.60;3.08;;;;;;;;;;4982540;28;20030;-76
2022/09/14 00:04:59;;;;;;;12.02;3.38;;;;;;;;;;4981987;28;20365;-76
2022/09/14 00:07:26;;;;;;;12.80;3.17;;;;;;;;;;4982787;28;20037;-75
2022/09/14 00:09:52;;;;;;;11.02;3.30;;;;;;;;;;4981917;28;20058;-75
2022/09/14 00:12:18;;;;;;;8.57;3.03;;;;;;;;;;4979333;28;20035;-75
2022/09/14 00:14:45;;;;;;;9.27;3.22;;;;;;;;;;4981612;28;20015;-75
2022/09/14 00:17:11;;;;;;;11.02;3.00;;;;;;;;;;4983473;28;20105;-76
2022/09/14 00:19:37;;;;;;;10.10;3.05;;;;;;;;;;4980984;28;20793;-74
2022/09/14 00:22:05;;;;;;;13.52;3.15;;;;;;;;;;4988389;28;20117;-74
2022/09/14 00:24:33;;;;;;;14.25;3.35;;;;;;;;;;4986056;28;20030;-76
2022/09/14 00:26:59;;;;;;;11.63;3.53;;;;;;;;;;4979462;28;20077;-77
2022/09/14 00:29:25;;;;;;;8.95;2.45;;;;;;;;;;4980977;28;20144;-76
2022/09/14 00:31:52;;;;;;;12.70;2.72;;;;;;;;;;4983128;28;20038;-76
2022/09/14 00:34:18;;;;;;;9.50;3.20;;;;;;;;;;4984365;28;20350;-76
2022/09/14 00:36:46;;;;;;;11.13;3.42;;;;;;;;;;4981356;28;20594;-76
2022/09/14 00:39:12;;;;;;;16.40;3.55;;;;;;;;;;4984524;28;20026;-75
2022/09/14 00:41:39;;;;;;;11.00;2.90;;;;;;;;;;4986368;28;20031;-75
2022/09/14 00:44:08;;;;;;;11.05;2.90;;;;;;;;;;4985911;28;20026;-75
2022/09/14 00:46:38;;;;;;;12.07;3.30;;;;;;;;;;4987170;28;20034;-76
2022/09/14 00:49:07;;;;;;;9.80;3.05;;;;;;;;;;4988498;28;20034;-75
2022/09/14 00:51:33;;;;;;;10.35;3.85;;;;;;;;;;4986623;28;20081;-75
2022/09/14 00:54:03;;;;;;;11.30;3.15;;;;;;;;;;4985695;28;20511;-75
2022/09/14 00:56:30;;;;;;;13.90;3.13;;;;;;;;;;4986836;28;20157;-75
2022/09/14 00:58:58;;;;;;;13.73;3.35;;;;;;;;;;4970676;28;20038;-76
2022/09/14 01:01:25;;;;;;;13.82;4.30;;;;;;;;;;4986293;28;20113;-76
2022/09/14 01:03:51;;;;;;;15.52;3.50;;;;;;;;;;4989362;28;20041;-76
2022/09/14 01:06:34;;;;;;;15.23;3.25;;;;;;;;;;4988274;28;20038;-75
2022/09/14 01:09:00;;;;;;;9.20;3.10;;;;;;;;;;4968675;28;20038;-74
2022/09/14 01:11:32;;;;;;;11.13;3.42;;;;;;;;;;4988069;28;20713;-75
2022/09/14 01:14:07;;;;;;;14.45;4.63;;;;;;;;;;4989443;28;20030;-75
2022/09/14 01:16:38;;;;;;;10.80;3.60;;;;;;;;;;4973468;28;20481;-75
2022/09/14 01:19:04;;;;;;;;;;;;;;;;;;4979298;28;20038;-75
2022/09/14 01:21:32;;;;;;;13.18;4.60;;;;;;;;;;4974071;28;19910;-75
2022/09/14 01:24:15;;;;;;;9.40;3.53;;;;;;;;;;4981961;28;20029;-74
2022/09/14 01:26:41;;;;;;;10.35;3.60;;;;;;;;;;4988677;28;20566;-74
2022/09/14 01:29:16;;;;;;;9.27;4.45;;;;;;;;;;4986838;28;20113;-74
2022/09/14 01:31:48;;;;;;;11.27;4.28;;;;;;;;;;4985283;28;20038;-75
2022/09/14 01:34:23;;;;;;;10.00;3.90;;;;;;;;;;4985102;28;20042;-74
2022/09/14 01:36:51;;;;;;;15.85;3.92;;;;;;;;;;4987950;28;20034;-75
2022/09/14 01:39:19;;;;;;;14.50;4.60;;;;;;;;;;4984426;28;20538;-75
2022/09/14 01:41:46;;;;;;;10.07;4.60;;;;;;;;;;4991435;28;20096;-75
2022/09/14 01:44:21;;;;;;;15.38;5.40;;;;;;;;;;4988555;28;20022;-75
2022/09/14 01:46:51;;;;;;;16.20;4.65;;;;;;;;;;4985705;28;20089;-75
2022/09/14 01:49:20;;;;;;;11.38;5.97;;;;;;;;;;4982910;28;20359;-75
2022/09/14 01:51:48;;;;;;;9.65;5.22;;;;;;;;;;4985978;28;20448;-74
2022/09/14 01:54:14;;;;;;;16.38;5.43;;;;;;;;;;4985347;28;20039;-75
2022/09/14 01:56:48;;;;;;;19.80;5.72;;;;;;;;;;4988079;28;20518;-75
2022/09/14 01:59:20;;;;;;;21.05;5.43;;;;;;;;;;4974292;28;20404;-75
2022/09/14 02:01:49;;;;;;;11.77;5.15;;;;;;;;;;4987872;28;20019;-75
2022/09/14 02:04:17;;;;;;;11.35;5.03;;;;;;;;;;4977926;28;20057;-75
2022/09/14 02:06:45;;;;;;;14.38;5.32;;;;;;;;;;4989272;28;20034;-76
2022/09/14 02:09:13;;;;;;;13.75;5.97;;;;;;;;;;4972538;28;20037;-75
2022/09/14 02:11:39;;;;;;;11.48;5.15;;;;;;;;;;4973974;28;20416;-75
2022/09/14 02:14:06;;;;;;;15.23;5.63;;;;;;;;;;4979307;28;20026;-75
2022/09/14 02:16:32;;;;;;;12.77;6.20;;;;;;;;;;4991744;28;20081;-74
2022/09/14 02:19:00;;;;;;;18.80;6.05;;;;;;;;;;4973282;28;20031;-75
2022/09/14 02:21:28;;;;;;;17.35;6.18;;;;;;;;;;4991616;28;20069;-74
2022/09/14 02:23:54;;;;;;;18.45;6.25;;;;;;;;;;4990351;28;20479;-75
2022/09/14 02:26:21;;;;;;;16.63;5.95;;;;;;;;;;4990261;28;20034;-76
2022/09/14 02:28:47;;;;;;;11.25;5.95;;;;;;;;;;4991906;28;20565;-75
2022/09/14 02:31:14;;;;;;;15.27;5.90;;;;;;;;;;4959563;28;20039;-75
2022/09/14 02:33:40;;;;;;;10.70;6.57;;;;;;;;;;4984866;28;20072;-75
2022/09/14 02:36:24;;;;;;;14.82;6.22;;;;;;;;;;4992026;28;20039;-75
2022/09/14 02:38:55;;;;;;;16.23;6.00;;;;;;;;;;4990648;28;20138;-75
2022/09/14 02:41:30;;;;;;;12.63;5.65;;;;;;;;;;4989479;28;20121;-76
2022/09/14 02:44:07;;;;;;;13.63;6.68;;;;;;;;;;4988429;28;20354;-74
2022/09/14 02:46:48;;;;;;;17.65;5.60;;;;;;;;;;4986713;28;20148;-74
2022/09/14 02:49:19;;;;;;;13.35;5.57;;;;;;;;;;4990729;28;20061;-76
2022/09/14 02:51:45;;;;;;;9.48;5.82;;;;;;;;;;4971787;28;20037;-76
2022/09/14 02:54:19;;;;;;;16.60;6.13;;;;;;;;;;4987764;28;20053;-75
2022/09/14 02:56:45;;;;;;;10.32;5.95;;;;;;;;;;4989985;28;20419;-76
2022/09/14 02:59:11;;;;;;;13.63;5.93;;;;;;;;;;4990868;28;20145;-75
2022/09/14 03:01:37;;;;;;;21.35;6.65;;;;;;;;;;4987483;28;20046;-74
2022/09/14 03:04:03;;;;;;;10.65;6.03;;;;;;;;;;4982782;28;20150;-75
2022/09/14 03:06:29;;;;;;;11.88;5.97;;;;;;;;;;4984101;28;20409;-74
2022/09/14 03:08:55;;;;;;;19.75;6.00;;;;;;;;;;4972297;28;20161;-75
2022/09/14 03:11:21;;;;;;;15.07;6.07;;;;;;;;;;4990421;28;20172;-76
2022/09/14 03:13:47;;;;;;;7.90;4.82;;;;;;;;;;4989813;28;20560;-76
2022/09/14 03:16:15;;;;;;;19.88;6.53;;;;;;;;;;4963218;28;21103;-75
2022/09/14 03:18:42;;;;;;;13.77;4.63;;;;;;;;;;4989880;28;20101;-75
2022/09/14 03:21:09;;;;;;;9.50;5.10;;;;;;;;;;4989648;28;20035;-76
2022/09/14 03:23:36;;;;;;;13.00;4.80;;;;;;;;;;4989016;28;20153;-74
2022/09/14 03:26:05;;;;;;;16.92;4.72;;;;;;;;;;4990216;28;20031;-75
2022/09/14 03:28:31;;;;;;;10.50;4.70;;;;;;;;;;4972304;28;20057;-76
2022/09/14 03:31:00;;;;;;;13.55;4.22;;;;;;;;;;4987381;28;20042;-75
2022/09/14 03:33:26;;;;;;;14.70;4.57;;;;;;;;;;4983780;28;20027;-76
2022/09/14 03:35:52;;;;;;;10.93;4.80;;;;;;;;;;4977966;28;20404;-77
2022/09/14 03:38:18;;;;;;;13.30;4.68;;;;;;;;;;4988820;28;20031;-76
2022/09/14 03:40:44;;;;;;;12.20;4.90;;;;;;;;;;4989893;28;20026;-77
2022/09/14 03:43:11;;;;;;;14.73;4.43;;;;;;;;;;4988095;28;20058;-76
2022/09/14 03:45:37;;;;;;;12.75;5.55;;;;;;;;;;4971941;28;20030;-76
2022/09/14 03:48:04;;;;;;;13.20;4.80;;;;;;;;;;4987794;28;20398;-76
2022/09/14 03:50:30;;;;;;;11.15;4.43;;;;;;;;;;4969627;28;20113;-76
2022/09/14 03:52:56;;;;;;;32.45;5.20;;;;;;;;;;4971771;28;20046;-76
2022/09/14 03:55:23;;;;;;;11.18;4.88;;;;;;;;;;4987281;28;20125;-77
2022/09/14 03:57:52;;;;;;;8.70;4.95;;;;;;;;;;4988943;28;20056;-77
2022/09/14 04:00:18;;;;;;;14.38;4.43;;;;;;;;;;4980978;28;20498;-77
2022/09/14 04:02:45;;;;;;;10.50;4.65;;;;;;;;;;4978899;28;20508;-77
2022/09/14 04:05:11;;;;;;;9.75;4.72;;;;;;;;;;4987835;28;20053;-77
2022/09/14 04:07:37;;;;;;;9.23;5.38;;;;;;;;;;4990112;28;20030;-78
2022/09/14 04:10:04;;;;;;;11.93;4.35;;;;;;;;;;4987818;28;20026;-77
2022/09/14 04:12:33;;;;;;;13.05;4.70;;;;;;;;;;4989060;28;20150;-77
2022/09/14 04:14:59;;;;;;;17.23;5.63;;;;;;;;;;4989250;28;20027;-78
2022/09/14 04:17:25;;;;;;;13.02;4.30;;;;;;;;;;4972020;28;20037;-76
2022/09/14 04:19:51;;;;;;;12.98;5.10;;;;;;;;;;4987496;28;20109;-76
2022/09/14 04:22:17;;;;;;;13.07;5.22;;;;;;;;;;4987579;28;20085;-75
2022/09/14 04:24:43;;;;;;;13.52;4.80;;;;;;;;;;4987347;28;20026;-76
2022/09/14 04:27:10;;;;;;;12.25;5.45;;;;;;;;;;4989604;28;20031;-76
2022/09/14 04:29:36;;;;;;;16.05;5.20;;;;;;;;;;4986396;28;20053;-75
2022/09/14 04:32:02;;;;;;;11.18;4.93;;;;;;;;;;4955149;28;20523;-75
2022/09/14 04:34:28;;;;;;;14.27;5.85;;;;;;;;;;4986847;28;20066;-75
2022/09/14 04:36:54;;;;;;;18.35;7.05;;;;;;;;;;4989712;28;20057;-75
2022/09/14 04:39:21;;;;;;;14.38;6.93;;;;;;;;;;4971447;28;20038;-74
2022/09/14 04:41:47;;;;;;;11.60;6.68;;;;;;;;;;4987473;28;20492;-75
2022/09/14 04:44:13;;;;;;;12.52;6.63;;;;;;;;;;4968694;28;20515;-75
2022/09/14 04:46:40;;;;;;;10.85;6.28;;;;;;;;;;4988866;28;20038;-75
2022/09/14 04:49:06;;;;;;;15.77;6.57;;;;;;;;;;4970829;28;20031;-75
2022/09/14 04:51:33;;;;;;;14.75;6.20;;;;;;;;;;4969013;28;20026;-75
2022/09/14 04:54:01;;;;;;;12.57;6.63;;;;;;;;;;4978399;28;20093;-75
2022/09/14 04:56:27;;;;;;;17.23;6.85;;;;;;;;;;4986417;28;20046;-76
2022/09/14 04:58:57;;;;;;;13.05;7.68;;;;;;;;;;4988639;28;20034;-76
2022/09/14 05:01:24;;;;;;;14.82;6.97;;;;;;;;;;4970922;28;20396;-75
2022/09/14 05:03:51;;;;;;;15.10;7.78;;;;;;;;;;4986982;28;20027;-74
2022/09/14 05:06:18;;;;;;;15.43;7.82;;;;;;;;;;4985819;28;20121;-75
2022/09/14 05:08:45;;;;;;;17.35;8.15;;;;;;;;;;4985482;28;20037;-75
2022/09/14 05:11:12;;;;;;;17.73;8.57;;;;;;;;;;4968933;28;20113;-75
2022/09/14 05:13:38;;;;;;;17.50;7.90;;;;;;;;;;4986903;28;20428;-75
2022/09/14 05:16:14;;;;;;;15.75;7.97;;;;;;;;;;4982065;28;20065;-75
2022/09/14 05:18:40;;;;;;;15.80;7.95;;;;;;;;;;4985912;28;20492;-75
2022/09/14 05:21:07;;;;;;;12.70;7.25;;;;;;;;;;4979460;28;20202;-74
2022/09/14 05:23:33;;;;;;;18.65;7.70;;;;;;;;;;4987837;28;20031;-75
2022/09/14 05:25:59;;;;;;;13.60;8.05;;;;;;;;;;4987762;28;20030;-74
2022/09/14 05:28:26;;;;;;;17.20;8.68;;;;;;;;;;4986508;28;20037;-73
2022/09/14 05:30:52;;;;;;;12.73;8.45;;;;;;;;;;4985813;28;20042;-75
2022/09/14 05:33:19;;;;;;;17.25;8.48;;;;;;;;;;4975067;28;20045;-75
2022/09/14 05:35:45;;;;;;;22.05;8.10;;;;;;;;;;4986481;28;20050;-75
2022/09/14 05:38:11;;;;;;;16.88;7.50;;;;;;;;;;4980999;28;20026;-75
2022/09/14 05:40:37;;;;;;;17.33;7.95;;;;;;;;;;4986725;28;20077;-75
2022/09/14 05:43:03;;;;;;;17.85;7.82;;;;;;;;;;4987805;28;20044;-76
2022/09/14 05:45:30;;;;;;;17.15;7.85;;;;;;;;;;4988501;28;20117;-74
2022/09/14 05:48:00;;;;;;;21.00;7.78;;;;;;;;;;4988904;28;20039;-75
2022/09/14 05:50:26;;;;;;;17.50;7.80;;;;;;;;;;4965497;28;20046;-75
2022/09/14 05:52:52;;;;;;;17.92;7.18;;;;;;;;;;4982347;28;20061;-74
2022/09/14 05:55:18;;;;;;;18.65;7.00;;;;;;;;;;4981969;28;20047;-74
2022/09/14 05:57:48;;;;;;;15.90;6.43;;;;;;;;;;4987726;28;20065;-75
2022/09/14 06:00:14;;;;;;;17.35;6.78;;;;;;;;;;4986376;28;20034;-75
2022/09/14 06:02:45;;;;;;;21.42;6.10;;;;;;;;;;4999667;28;20107;-75
2022/09/14 06:05:11;;;;;;;10.48;5.70;;;;;;;;;;4984273;28;20026;-74
2022/09/14 06:07:37;;;;;;;15.02;6.15;;;;;;;;;;4982407;28;20498;-74
2022/09/14 06:10:03;;;;;;;9.52;5.43;;;;;;;;;;4988577;28;20046;-74
2022/09/14 06:12:29;;;;;;;14.00;6.93;;;;;;;;;;4984105;28;20058;-74
2022/09/14 06:14:55;;;;;;;12.20;5.70;;;;;;;;;;4987363;28;20073;-74
2022/09/14 06:17:21;;;;;;;12.82;4.93;;;;;;;;;;4983774;28;20038;-74
2022/09/14 06:19:47;;;;;;;14.05;5.90;;;;;;;;;;4981796;28;20038;-73
2022/09/14 06:22:13;;;;;;;17.92;5.80;;;;;;;;;;4978471;28;20018;-74
2022/09/14 06:24:39;;;;;;;11.63;4.43;;;;;;;;;;4986501;28;20507;-74
2022/09/14 06:27:07;;;;;;;14.25;4.85;;;;;;;;;;4983295;28;20031;-75
2022/09/14 06:29:34;;;;;;;12.23;5.10;;;;;;;;;;4987336;28;20034;-74
2022/09/14 06:32:00;;;;;;;14.40;4.90;;;;;;;;;;4988241;28;20104;-74
2022/09/14 06:34:26;;;;;;;11.50;4.47;;;;;;;;;;4991355;28;20333;-75
2022/09/14 06:36:52;;;;;;;16.85;5.80;;;;;;;;;;4992230;28;20038;-74
2022/09/14 06:39:18;;;;;;;11.57;4.93;;;;;;;;;;4989190;28;20034;-75
2022/09/14 06:41:44;;;;;;;12.27;4.20;;;;;;;;;;4980678;28;20030;-75
2022/09/14 06:44:10;;;;;;;19.60;4.85;;;;;;;;;;4984981;28;20054;-74
2022/09/14 06:46:36;;;;;;;7.78;4.00;;;;;;;;;;4990926;28;20081;-75
2022/09/14 06:49:06;;;;;;;14.70;4.50;;;;;;;;;;4985070;28;20045;-75
2022/09/14 06:51:34;;;;;;;13.70;5.00;;;;;;;;;;4983100;28;20038;-73
2022/09/14 06:54:00;;;;;;;13.88;4.40;;;;;;;;;;4979395;28;20152;-74
2022/09/14 06:56:27;;;;;;;15.82;5.72;;;;;;;;;;4989573;28;20042;-73
2022/09/14 06:58:53;;;;;;;9.63;4.47;;;;;;;;;;4989974;28;20496;-74
2022/09/14 07:01:20;;;;;;;12.90;5.53;;;;;;;;;;4988167;28;20026;-73
2022/09/14 07:03:46;;;;;;;33.70;6.53;;;;;;;;;;4986780;28;20055;-74
2022/09/14 07:06:14;;;;;;;40.97;7.05;;;;;;;;;;4988475;28;20034;-75
2022/09/14 07:08:40;;;;;;;20.90;5.90;;;;;;;;;;4979293;28;20053;-74
2022/09/14 07:11:07;;;;;;;46.33;9.27;;;;;;;;;;4984878;28;20114;-74
2022/09/14 07:13:34;;;;;;;82.45;10.55;;;;;;;;;;4987923;28;20337;-74
2022/09/14 07:16:00;;;;;;;39.88;6.10;;;;;;;;;;4991145;28;20049;-75
2022/09/14 07:18:31;;;;;;;20.95;5.28;;;;;;;;;;4971532;28;20051;-75
2022/09/14 07:21:01;;;;;;;17.83;5.50;;;;;;;;;;4986770;28;20259;-74
2022/09/14 07:23:27;;;;;;;11.00;5.25;;;;;;;;;;4983318;28;20168;-74
2022/09/14 07:26:04;;;;;;;16.33;5.22;;;;;;;;;;4984625;28;20109;-73
2022/09/14 07:28:30;;;;;;;15.85;5.10;;;;;;;;;;4990147;28;20037;-74
2022/09/14 07:30:57;;;;;;;13.50;5.15;;;;;;;;;;4969430;28;20133;-74
2022/09/14 07:33:23;;;;;;;14.98;4.93;;;;;;;;;;4989807;28;20161;-74
2022/09/14 07:35:51;;;;;;;23.05;5.05;;;;;;;;;;4970661;28;20038;-74
2022/09/14 07:38:17;;;;;;;9.70;4.90;;;;;;;;;;4974610;28;20102;-74
2022/09/14 07:40:43;;;;;;;10.05;4.63;;;;;;;;;;4990342;28;20173;-74
2022/09/14 07:43:09;;;;;;;16.73;5.53;;;;;;;;;;4989976;28;20495;-75
2022/09/14 07:45:36;;;;;;;18.38;5.10;;;;;;;;;;4986444;28;20030;-74
2022/09/14 07:48:02;;;;;;;13.00;5.18;;;;;;;;;;4985476;28;20411;-73
2022/09/14 07:50:28;;;;;;;16.88;5.07;;;;;;;;;;4988998;28;20035;-74
2022/09/14 07:52:54;;;;;;;17.35;5.32;;;;;;;;;;4988656;28;20037;-73
2022/09/14 07:55:20;;;;;;;15.50;4.85;;;;;;;;;;4989431;28;20507;-73
2022/09/14 07:57:46;;;;;;;13.07;6.28;;;;;;;;;;4972496;28;20036;-73
2022/09/14 08:00:13;;;;;;;15.75;5.00;;;;;;;;;;4989776;28;20023;-74
2022/09/14 08:02:39;;;;;;;10.90;4.82;;;;;;;;;;4989953;28;20026;-73
2022/09/14 08:05:06;;;;;;;10.55;4.18;;;;;;;;;;4971623;28;20514;-73
2022/09/14 08:07:32;;;;;;;8.93;4.63;;;;;;;;;;4970317;28;20128;-72
2022/09/14 08:09:58;;;;;;;10.60;4.80;;;;;;;;;;4989332;28;20113;-73
2022/09/14 08:12:24;;;;;;;16.75;4.40;;;;;;;;;;4989785;28;20049;-73
2022/09/14 08:14:52;;;;;;;15.40;5.35;;;;;;;;;;4989479;28;20038;-73
2022/09/14 08:17:20;;;;;;;9.80;4.38;;;;;;;;;;4988708;28;20026;-73
2022/09/14 08:19:46;;;;;;;13.07;4.15;;;;;;;;;;4971944;28;20126;-73
2022/09/14 08:22:12;;;;;;;8.27;4.20;;;;;;;;;;4986942;28;20524;-73
2022/09/14 08:24:39;;;;;;;13.57;4.47;;;;;;;;;;4989356;28;20122;-73
2022/09/14 08:27:05;;;;;;;9.30;4.30;;;;;;;;;;4971288;28;20058;-73
2022/09/14 08:29:31;;;;;;;15.15;4.35;;;;;;;;;;4972126;28;20315;-74
2022/09/14 08:31:57;;;;;;;12.88;4.32;;;;;;;;;;4971452;28;20435;-73
2022/09/14 08:34:23;;;;;;;13.48;4.20;;;;;;;;;;4988084;28;20057;-73
2022/09/14 08:36:49;;;;;;;12.27;4.95;;;;;;;;;;4988988;28;20041;-73
2022/09/14 08:39:16;;;;;;;11.02;3.75;;;;;;;;;;4986566;28;20054;-73
2022/09/14 08:41:51;;;;;;;11.63;3.20;;;;;;;;;;4985328;28;20037;-74
2022/09/14 08:44:20;;;;;;;8.90;2.97;;;;;;;;;;4986353;28;20360;-74
2022/09/14 08:46:52;;;;;;;7.57;2.60;;;;;;;;;;4985556;28;20030;-73
2022/09/14 08:49:29;;;;;;;9.27;2.60;;;;;;;;;;4977118;28;20484;-73
2022/09/14 08:51:56;;;;;;;5.95;2.13;;;;;;;;;;4982738;28;20099;-73
2022/09/14 08:54:22;;;;;;;10.18;3.08;;;;;;;;;;4976081;28;20046;-73
2022/09/14 08:57:02;;;;;;;12.90;3.22;;;;;;;;;;4968728;28;20046;-73
2022/09/14 08:59:36;;;;;;;17.20;4.78;;;;;;;;;;4964616;28;20691;-74
2022/09/14 09:02:02;;;;;;;12.45;4.32;;;;;;;;;;4974124;28;20031;-73
2022/09/14 09:04:38;;;;;;;15.07;4.07;;;;;;;;;;4979976;28;20030;-73
2022/09/14 09:07:04;;;;;;;13.88;4.35;;;;;;;;;;4970206;28;20037;-73
2022/09/14 09:09:44;;;;;;;14.43;4.53;;;;;;;;;;4963084;28;20134;-73
2022/09/14 09:12:17;;;;;;;7.95;3.80;;;;;;;;;;4979668;28;20555;-73
2022/09/14 09:14:57;;;;;;;8.98;3.40;;;;;;;;;;4984810;28;20454;-74
2022/09/14 09:17:27;;;;;;;14.13;3.00;;;;;;;;;;4992013;28;20443;-74
2022/09/14 09:19:56;;;;;;;12.43;2.88;;;;;;;;;;4990240;28;20126;-74
2022/09/14 09:22:24;;;;;;;8.98;2.97;;;;;;;;;;4982574;28;20053;-75
2022/09/14 09:24:52;;;;;;;9.90;3.13;;;;;;;;;;4990958;28;20124;-75
2022/09/14 09:27:19;;;;;;;7.78;2.72;;;;;;;;;;4974530;28;20042;-75
2022/09/14 09:29:45;;;;;;;11.23;2.90;;;;;;;;;;4986936;28;20038;-75
2022/09/14 09:32:14;;;;;;;16.13;3.00;;;;;;;;;;4992757;28;20042;-74
2022/09/14 09:34:40;;;;;;;9.48;2.80;;;;;;;;;;4990262;28;20488;-74
2022/09/14 09:37:12;;;;;;;10.05;2.88;;;;;;;;;;4973632;28;20034;-74
2022/09/14 09:39:38;;;;;;;9.98;2.65;;;;;;;;;;4989930;28;20197;-74
2022/09/14 09:42:12;;;;;;;17.77;2.97;;;;;;;;;;4971990;28;20117;-75
2022/09/14 09:44:54;;;;;;;10.65;2.95;;;;;;;;;;4972051;28;20025;-74
2022/09/14 09:47:26;;;;;;;12.70;3.53;;;;;;;;;;4969947;28;20042;-75
2022/09/14 09:49:57;;;;;;;10.68;2.58;;;;;;;;;;4991463;28;20049;-74
2022/09/14 09:52:23;;;;;;;10.32;3.13;;;;;;;;;;4989466;28;20050;-74
2022/09/14 09:54:50;;;;;;;11.57;3.45;;;;;;;;;;4985381;28;20062;-74
2022/09/14 09:57:22;;;;;;;10.50;3.33;;;;;;;;;;4988838;28;20189;-75
2022/09/14 09:59:48;;;;;;;11.60;3.33;;;;;;;;;;4989724;28;20567;-75
2022/09/14 10:02:22;;;;;;;8.57;3.00;;;;;;;;;;4986063;28;20035;-75
2022/09/14 10:05:08;;;;;;;9.15;3.40;;;;;;;;;;4992462;28;20105;-76
2022/09/14 10:07:39;;;;;;;9.18;3.58;;;;;;;;;;4973087;28;20057;-76
2022/09/14 10:10:12;;;;;;;14.23;3.28;;;;;;;;;;4989050;28;20522;-75
2022/09/14 10:12:45;;;;;;;10.70;3.78;;;;;;;;;;4988314;28;20496;-75
2022/09/14 10:15:21;;;;;;;10.30;3.33;;;;;;;;;;4986626;28;20100;-76
2022/09/14 10:17:56;;;;;;;12.02;3.63;;;;;;;;;;4989946;28;20038;-76
2022/09/14 10:20:23;;;;;;;15.43;3.72;;;;;;;;;;4989175;28;20037;-76
2022/09/14 10:22:50;;;;;;;9.88;3.67;;;;;;;;;;4991796;28;20030;-75
2022/09/14 10:25:16;;;;;;;11.65;3.47;;;;;;;;;;4990833;28;20030;-74
2022/09/14 10:27:47;;;;;;;8.25;3.35;;;;;;;;;;4988349;28;20030;-76
2022/09/14 10:30:17;;;;;;;15.82;3.65;;;;;;;;;;4985022;28;20037;-76
2022/09/14 10:32:46;;;;;;;14.88;3.35;;;;;;;;;;4986845;28;20022;-76
2022/09/14 10:35:13;;;;;;;10.27;3.25;;;;;;;;;;4987531;28;20061;-77
2022/09/14 10:37:52;;;;;;;11.63;3.78;;;;;;;;;;4983747;28;20027;-76
2022/09/14 10:40:19;;;;;;;10.40;4.28;;;;;;;;;;4972178;28;20114;-76
2022/09/14 10:42:51;;;;;;;14.10;3.58;;;;;;;;;;4991076;28;20038;-75
2022/09/14 10:45:21;;;;;;;11.32;3.67;;;;;;;;;;4979255;28;20030;-74
2022/09/14 10:47:47;;;;;;;9.07;3.00;;;;;;;;;;4988806;28;20037;-75
2022/09/14 10:50:19;;;;;;;17.75;3.67;;;;;;;;;;4988804;28;20285;-75
2022/09/14 10:52:48;;;;;;;12.85;3.35;;;;;;;;;;4990736;28;20046;-75
2022/09/14 10:55:23;;;;;;;8.57;3.28;;;;;;;;;;4989047;28;20496;-75
2022/09/14 10:57:54;;;;;;;21.63;3.20;;;;;;;;;;4990260;28;20464;-75
2022/09/14 11:00:21;;;;;;;24.08;3.17;;;;;;;;;;4985131;28;20122;-75
2022/09/14 11:02:50;;;;;;;11.57;3.20;;;;;;;;;;4982456;28;20034;-76
2022/09/14 11:05:25;;;;;;;13.45;3.53;;;;;;;;;;4990659;28;20041;-75
2022/09/14 11:08:06;;;;;;;11.43;3.13;;;;;;;;;;4974010;28;20027;-75
2022/09/14 11:10:38;;;;;;;9.02;2.75;;;;;;;;;;4990388;28;20113;-75
2022/09/14 11:13:10;;;;;;;12.48;3.30;;;;;;;;;;4990246;28;20031;-76
2022/09/14 11:15:42;;;;;;;10.00;3.10;;;;;;;;;;4983014;28;20038;-74
2022/09/14 11:18:23;;;;;;;8.25;3.20;;;;;;;;;;4983136;28;20029;-74
2022/09/14 11:20:58;;;;;;;12.77;3.50;;;;;;;;;;4990913;28;20031;-75
2022/09/14 11:23:45;;;;;;;12.95;2.92;;;;;;;;;;4973593;28;20022;-75
2022/09/14 11:26:14;;;;;;;15.40;3.50;;;;;;;;;;4985702;28;20034;-74
2022/09/14 11:28:46;;;;;;;8.85;3.10;;;;;;;;;;4988324;28;20054;-75
2022/09/14 11:31:35;;;;;;;16.55;3.40;;;;;;;;;;4986837;28;20046;-74
2022/09/14 11:34:12;;;;;;;9.60;2.60;;;;;;;;;;4977839;28;20411;-75
2022/09/14 11:36:44;;;;;;;12.52;3.13;;;;;;;;;;4982296;28;20405;-75
2022/09/14 11:39:22;;;;;;;14.27;3.58;;;;;;;;;;4953013;28;20270;-75
2022/09/14 11:41:48;;;;;;;12.50;3.17;;;;;;;;;;4983768;28;20057;-74
2022/09/14 11:44:18;;;;;;;17.92;3.38;;;;;;;;;;4984093;28;20460;-75
2022/09/14 11:47:05;;;;;;;12.52;3.08;;;;;;;;;;4988872;28;20411;-75
2022/09/14 11:49:40;;;;;;;13.50;3.42;;;;;;;;;;4986936;28;20160;-76
2022/09/14 11:52:15;;;;;;;14.65;3.40;;;;;;;;;;4987909;28;20030;-75
2022/09/14 11:54:42;;;;;;;13.85;3.10;;;;;;;;;;4975949;28;20053;-76
2022/09/14 11:57:13;;;;;;;12.38;3.28;;;;;;;;;;4971113;28;20102;-75
2022/09/14 11:59:39;;;;;;;16.80;2.95;;;;;;;;;;4981461;28;20038;-75
2022/09/14 12:02:23;;;;;;;10.52;2.95;;;;;;;;;;4987024;28;20669;-75
2022/09/14 12:05:05;;;;;;;13.38;3.63;;;;;;;;;;4986847;28;20494;-75
2022/09/14 12:07:45;;;;;;;5.70;2.60;;;;;;;;;;4970644;28;20083;-75
2022/09/14 12:10:14;;;;;;;14.10;3.28;;;;;;;;;;4976898;28;20034;-75
2022/09/14 12:12:46;;;;;;;14.45;3.83;;;;;;;;;;4988717;28;20030;-75
2022/09/14 12:15:12;;;;;;;8.70;3.65;;;;;;;;;;4988095;28;20034;-75
2022/09/14 12:17:40;;;;;;;9.68;2.83;;;;;;;;;;4967586;28;20034;-75
2022/09/14 12:20:32;;;;;;;12.48;3.17;;;;;;;;;;4986472;28;20507;-75
2022/09/14 12:23:04;;;;;;;9.05;2.72;;;;;;;;;;4980547;28;20030;-74
2022/09/14 12:25:30;;;;;;;18.85;3.47;;;;;;;;;;4989225;28;20038;-74
2022/09/14 12:27:56;;;;;;;11.07;2.83;;;;;;;;;;4990041;28;20038;-75
2022/09/14 12:30:40;;;;;;;15.05;3.13;;;;;;;;;;4984656;28;20038;-74
2022/09/14 12:33:30;;;;;;;12.10;3.13;;;;;;;;;;4990954;28;20027;-75
2022/09/14 12:35:56;;;;;;;13.85;2.50;;;;;;;;;;4971277;28;20046;-76
2022/09/14 12:38:31;;;;;;;8.80;2.30;;;;;;;;;;4988233;28;20038;-74
2022/09/14 12:41:03;;;;;;;12.73;2.35;;;;;;;;;;4990412;28;20026;-75
2022/09/14 12:43:32;;;;;;;8.77;2.60;;;;;;;;;;4988989;28;20105;-75
2022/09/14 12:46:04;;;;;;;10.68;2.50;;;;;;;;;;4987254;28;20487;-76
2022/09/14 12:48:46;;;;;;;10.38;2.58;;;;;;;;;;4990354;28;20038;-75
2022/09/14 12:51:34;;;;;;;11.68;2.58;;;;;;;;;;4993244;28;20037;-76
2022/09/14 12:54:07;;;;;;;21.15;2.88;;;;;;;;;;4988143;28;20050;-76
2022/09/14 12:56:33;;;;;;;9.35;2.13;;;;;;;;;;4993483;28;20077;-74
2022/09/14 12:59:07;;;;;;;13.07;2.53;;;;;;;;;;4990620;28;20113;-75
2022/09/14 13:01:33;;;;;;;14.57;2.35;;;;;;;;;;4989209;28;20111;-76
2022/09/14 13:03:59;;;;;;;9.73;2.35;;;;;;;;;;4983965;28;20211;-76
2022/09/14 13:06:32;;;;;;;7.35;2.30;;;;;;;;;;4983361;28;20117;-76
2022/09/14 13:08:59;;;;;;;16.33;3.08;;;;;;;;;;4992966;28;20088;-76
2022/09/14 13:11:31;;;;;;;13.02;3.00;;;;;;;;;;4991264;28;20093;-76
2022/09/14 13:14:00;;;;;;;11.50;2.10;;;;;;;;;;4974490;28;20447;-76
2022/09/14 13:16:35;;;;;;;10.35;1.77;;;;;;;;;;4993828;28;20042;-76
2022/09/14 13:19:03;;;;;;;10.95;2.42;;;;;;;;;;4992620;28;20059;-76
2022/09/14 13:21:29;;;;;;;11.15;2.20;;;;;;;;;;4982061;28;20023;-76
2022/09/14 13:23:55;;;;;;;7.15;1.80;;;;;;;;;;4980452;28;20038;-76
2022/09/14 13:26:23;;;;;;;11.45;1.65;;;;;;;;;;4988085;28;20356;-76
2022/09/14 13:28:50;;;;;;;10.88;2.42;;;;;;;;;;4991437;28;20410;-76
2022/09/14 13:31:18;;;;;;;9.50;1.77;;;;;;;;;;4991895;28;20372;-76
2022/09/14 13:33:49;;;;;;;8.93;2.17;;;;;;;;;;4993989;28;20026;-76
2022/09/14 13:36:17;;;;;;;8.35;1.73;;;;;;;;;;4990884;28;20041;-77
2022/09/14 13:38:43;;;;;;;9.60;1.60;;;;;;;;;;4992993;28;20014;-77
2022/09/14 13:41:11;;;;;;;9.65;1.90;;;;;;;;;;4998767;28;20037;-77
2022/09/14 13:43:37;;;;;;;12.43;1.45;;;;;;;;;;4995049;28;20113;-76
2022/09/14 13:46:06;;;;;;;7.20;1.50;;;;;;;;;;4992296;28;20042;-77
2022/09/14 13:48:33;;;;;;;7.07;1.60;;;;;;;;;;4992770;28;20149;-76
2022/09/14 13:50:59;;;;;;;8.85;1.60;;;;;;;;;;4996322;28;20038;-76
2022/09/14 13:53:37;;;;;;;7.20;1.42;;;;;;;;;;4994656;28;20061;-75
2022/09/14 13:56:16;;;;;;;9.98;2.47;;;;;;;;;;4984634;28;20030;-76
2022/09/14 13:58:42;;;;;;;10.82;2.15;;;;;;;;;;4986304;28;20365;-76
2022/09/14 14:01:08;;;;;;;7.05;1.60;;;;;;;;;;4991931;28;20117;-75
2022/09/14 14:03:38;;;;;;;7.35;1.38;;;;;;;;;;4974195;28;20491;-76
2022/09/14 14:06:19;;;;;;;9.63;1.30;;;;;;;;;;4978296;28;20050;-77
2022/09/14 14:08:51;;;;;;;10.23;1.40;;;;;;;;;;4986559;28;20046;-75
2022/09/14 14:11:25;;;;;;;6.32;1.30;;;;;;;;;;4988890;28;20033;-76
2022/09/14 14:13:51;;;;;;;6.82;1.40;;;;;;;;;;4989450;28;21173;-75
2022/09/14 14:16:22;;;;;;;10.50;1.50;;;;;;;;;;4986323;28;20066;-76
2022/09/14 14:18:47;;;;;;;;;;;;;;;;;;4990830;28;20105;-76
2022/09/14 14:21:24;;;;;;;7.70;2.45;;;;;;;;;;4976394;28;19953;-76
2022/09/14 14:23:50;;;;;;;6.43;1.23;;;;;;;;;;4980692;28;20073;-75
2022/09/14 14:26:25;;;;;;;7.60;1.27;;;;;;;;;;4972103;28;20035;-76
2022/09/14 14:28:52;;;;;;;5.93;1.20;;;;;;;;;;4991181;28;20061;-76
2022/09/14 14:31:19;;;;;;;6.47;1.10;;;;;;;;;;4969678;28;20120;-76
2022/09/14 14:33:50;;;;;;;9.10;1.17;;;;;;;;;;4984383;28;20027;-76
2022/09/14 14:36:18;;;;;;;8.27;1.33;;;;;;;;;;4986966;28;20030;-76
2022/09/14 14:38:46;;;;;;;8.07;1.30;;;;;;;;;;4976188;28;20026;-77
2022/09/14 14:41:15;;;;;;;6.53;1.45;;;;;;;;;;4984906;28;20034;-76
2022/09/14 14:43:44;;;;;;;7.27;1.27;;;;;;;;;;4982644;28;20387;-76